createdAt,value
2023-01-18T00:01:13.788Z,2.88
2023-01-18T00:03:42.376Z,2.72
2023-01-18T00:06:10.979Z,2.69
2023-01-18T00:08:39.543Z,2.69
2023-01-18T00:11:12.440Z,2.76
2023-01-18T00:13:40.147Z,2.59
2023-01-18T00:16:11.511Z,2.09
2023-01-18T00:18:39.682Z,2.37
2023-01-18T00:21:09.245Z,2.15
2023-01-18T00:23:37.181Z,1.83
2023-01-18T00:26:06.932Z,2.09
2023-01-18T00:28:34.409Z,2.09
2023-01-18T00:31:01.919Z,1.93
2023-01-18T00:33:30.546Z,1.98
2023-01-18T00:35:59.484Z,1.83
2023-01-18T00:38:27.913Z,1.85
2023-01-18T00:40:56.087Z,1.80
2023-01-18T00:43:38.889Z,1.75
2023-01-18T00:46:08.421Z,2.02
2023-01-18T00:48:36.240Z,2.20
2023-01-18T00:51:03.825Z,2.46
2023-01-18T00:53:31.779Z,2.65
2023-01-18T00:55:59.227Z,2.30
2023-01-18T00:58:26.713Z,2.23
2023-01-18T01:00:54.269Z,2.08
2023-01-18T01:03:21.943Z,2.53
2023-01-18T01:06:07.988Z,2.39
2023-01-18T01:08:35.563Z,2.43
2023-01-18T01:11:11.490Z,2.46
2023-01-18T01:13:58.040Z,2.00
2023-01-18T01:16:43.833Z,1.82
2023-01-18T01:19:29.923Z,2.19
2023-01-18T01:22:15.821Z,1.86
2023-01-18T01:25:02.040Z,1.80
2023-01-18T01:27:29.665Z,1.88
2023-01-18T01:29:56.978Z,1.68
2023-01-18T01:32:25.107Z,2.13
2023-01-18T01:34:52.525Z,2.04
2023-01-18T01:37:19.926Z,2.05
2023-01-18T01:39:47.259Z,2.11
2023-01-18T01:42:14.755Z,1.90
2023-01-18T01:44:48.175Z,1.71
2023-01-18T01:47:26.440Z,2.07
2023-01-18T01:49:58.700Z,2.17
2023-01-18T01:52:32.784Z,2.48
2023-01-18T01:55:04.937Z,1.76
2023-01-18T01:57:36.817Z,1.61
2023-01-18T02:00:09.041Z,1.84
2023-01-18T02:02:40.963Z,2.12
2023-01-18T02:05:09.947Z,2.10
2023-01-18T02:07:37.401Z,2.36
2023-01-18T02:10:05.823Z,2.32
2023-01-18T02:12:33.615Z,2.21
2023-01-18T02:15:01.341Z,2.14
2023-01-18T02:17:43.538Z,1.93
2023-01-18T02:20:31.978Z,2.12
2023-01-18T02:23:18.329Z,2.33
2023-01-18T02:26:07.082Z,1.97
2023-01-18T02:28:36.709Z,2.18
2023-01-18T02:31:17.724Z,2.53
2023-01-18T02:33:46.963Z,2.57
2023-01-18T02:36:26.350Z,2.40
2023-01-18T02:39:02.567Z,2.39
2023-01-18T02:41:58.118Z,2.72
2023-01-18T02:44:49.067Z,3.02
2023-01-18T02:47:16.837Z,2.90
2023-01-18T02:49:44.341Z,2.75
2023-01-18T02:52:39.858Z,2.44
2023-01-18T02:55:18.411Z,2.60
2023-01-18T02:57:46.067Z,2.76
2023-01-18T03:00:17.815Z,2.59
2023-01-18T03:02:47.278Z,2.64
2023-01-18T03:05:14.917Z,2.40
2023-01-18T03:07:53.937Z,2.83
2023-01-18T03:10:22.131Z,2.73
2023-01-18T03:13:10.231Z,2.65
2023-01-18T03:15:51.950Z,2.20
2023-01-18T03:18:23.220Z,2.21
2023-01-18T03:20:53.474Z,2.17
2023-01-18T03:23:38.558Z,2.28
2023-01-18T03:26:11.111Z,2.13
2023-01-18T03:29:00.836Z,2.06
2023-01-18T03:31:52.474Z,1.72
2023-01-18T03:34:25.729Z,1.68
2023-01-18T03:36:54.422Z,1.44
2023-01-18T03:39:28.447Z,1.57
2023-01-18T03:42:06.747Z,1.64
2023-01-18T03:44:36.519Z,1.70
2023-01-18T03:47:05.491Z,1.59
2023-01-18T03:49:33.761Z,1.26
2023-01-18T03:52:17.636Z,1.55
2023-01-18T03:55:17.189Z,1.60
2023-01-18T03:57:50.197Z,1.56
2023-01-18T04:00:18.339Z,1.65
2023-01-18T04:02:47.997Z,1.62
2023-01-18T04:05:15.670Z,1.92
2023-01-18T04:07:43.183Z,1.69
2023-01-18T04:10:11.531Z,1.66
2023-01-18T04:12:38.990Z,1.36
2023-01-18T04:15:06.980Z,1.45
2023-01-18T04:17:34.475Z,1.84
2023-01-18T04:20:01.935Z,1.62
2023-01-18T04:22:29.366Z,1.62
2023-01-18T04:24:56.762Z,1.45
2023-01-18T04:27:25.471Z,1.15
2023-01-18T04:29:53.148Z,1.41
2023-01-18T04:32:20.584Z,1.32
2023-01-18T04:34:48.126Z,1.43
2023-01-18T04:37:15.596Z,1.51
2023-01-18T04:39:43.192Z,1.67
2023-01-18T04:42:10.452Z,1.31
2023-01-18T04:44:38.231Z,1.21
2023-01-18T04:47:05.509Z,1.43
2023-01-18T04:49:33.029Z,1.46
2023-01-18T04:52:00.426Z,1.43
2023-01-18T04:54:28.267Z,1.61
2023-01-18T04:56:55.720Z,1.17
2023-01-18T04:59:23.195Z,1.39
2023-01-18T05:01:50.534Z,1.65
2023-01-18T05:04:18.066Z,1.86
2023-01-18T05:06:45.590Z,2.05
2023-01-18T05:09:13.165Z,1.80
2023-01-18T05:11:40.655Z,1.97
2023-01-18T05:14:09.019Z,1.94
2023-01-18T05:16:36.499Z,1.58
2023-01-18T05:19:04.341Z,1.69
2023-01-18T05:21:31.812Z,1.36
2023-01-18T05:23:59.692Z,1.35
2023-01-18T05:26:27.039Z,1.71
2023-01-18T05:28:57.774Z,1.62
2023-01-18T05:31:25.495Z,1.63
2023-01-18T05:33:53.354Z,1.94
2023-01-18T05:36:20.698Z,2.14
2023-01-18T05:38:48.041Z,2.13
2023-01-18T05:41:15.605Z,2.25
2023-01-18T05:43:43.125Z,2.24
2023-01-18T05:46:10.613Z,2.18
2023-01-18T05:48:38.105Z,2.18
2023-01-18T05:51:10.521Z,1.99
2023-01-18T05:53:38.180Z,1.95
2023-01-18T05:56:06.958Z,1.81
2023-01-18T05:58:35.033Z,1.57
2023-01-18T06:01:02.523Z,1.57
2023-01-18T06:03:30.132Z,1.56
2023-01-18T06:05:59.275Z,1.47
2023-01-18T06:08:27.983Z,1.82
2023-01-18T06:10:57.399Z,1.85
2023-01-18T06:13:28.053Z,2.19
2023-01-18T06:15:56.832Z,2.33
2023-01-18T06:18:25.216Z,2.39
2023-01-18T06:21:01.388Z,2.71
2023-01-18T06:23:30.183Z,2.72
2023-01-18T06:25:58.130Z,2.74
2023-01-18T06:28:26.124Z,2.50
2023-01-18T06:30:55.168Z,2.50
2023-01-18T06:33:23.760Z,2.45
2023-01-18T06:35:51.697Z,2.76
2023-01-18T06:38:19.319Z,2.76
2023-01-18T06:40:46.753Z,2.94
2023-01-18T06:43:14.477Z,3.02
2023-01-18T06:45:42.050Z,2.74
2023-01-18T06:48:09.756Z,2.93
2023-01-18T06:50:37.178Z,3.03
2023-01-18T06:53:04.585Z,2.63
2023-01-18T06:55:32.171Z,2.64
2023-01-18T06:57:59.543Z,2.33
2023-01-18T07:00:27.168Z,2.41
2023-01-18T07:02:55.124Z,2.55
2023-01-18T07:05:22.958Z,2.67
2023-01-18T07:07:50.325Z,2.80
2023-01-18T07:10:17.780Z,2.48
2023-01-18T07:12:48.833Z,2.95
2023-01-18T07:15:22.529Z,3.20
2023-01-18T07:17:51.130Z,3.12
2023-01-18T07:20:20.071Z,2.95
2023-01-18T07:22:53.762Z,2.75
2023-01-18T07:25:21.273Z,2.49
2023-01-18T07:27:49.544Z,2.47
2023-01-18T07:30:17.744Z,2.49
2023-01-18T07:32:51.487Z,2.36
2023-01-18T07:35:22.223Z,2.46
2023-01-18T07:37:52.288Z,2.42
2023-01-18T07:40:21.349Z,2.64
2023-01-18T07:42:50.092Z,2.40
2023-01-18T07:45:17.678Z,2.38
2023-01-18T07:47:46.319Z,2.86
2023-01-18T07:50:17.482Z,2.97
2023-01-18T07:52:44.808Z,3.04
2023-01-18T07:55:12.213Z,2.70
2023-01-18T07:57:39.991Z,3.07
2023-01-18T08:00:08.448Z,4.88
2023-01-18T08:02:41.877Z,5.14
2023-01-18T08:05:10.773Z,5.03
2023-01-18T08:07:38.219Z,4.01
2023-01-18T08:10:06.347Z,3.83
2023-01-18T08:12:33.803Z,3.15
2023-01-18T08:15:01.444Z,2.93
2023-01-18T08:17:30.256Z,3.16
2023-01-18T08:19:58.044Z,2.94
2023-01-18T08:22:25.490Z,3.40
2023-01-18T08:24:53.357Z,3.03
2023-01-18T08:27:25.771Z,2.58
2023-01-18T08:29:54.547Z,2.54
2023-01-18T08:32:21.949Z,2.43
2023-01-18T08:34:49.473Z,2.42
2023-01-18T08:37:17.395Z,2.63
2023-01-18T08:39:44.912Z,2.84
2023-01-18T08:42:12.698Z,3.15
2023-01-18T08:44:40.305Z,3.34
2023-01-18T08:47:08.009Z,3.15
2023-01-18T08:49:35.897Z,3.09
2023-01-18T08:52:03.349Z,3.30
2023-01-18T08:54:30.747Z,3.02
2023-01-18T08:56:58.395Z,2.91
2023-01-18T08:59:25.886Z,2.98
2023-01-18T09:01:53.457Z,3.46
2023-01-18T09:04:20.904Z,3.43
2023-01-18T09:06:51.629Z,3.22
2023-01-18T09:09:19.280Z,3.48
2023-01-18T09:11:46.964Z,3.78
2023-01-18T09:14:15.672Z,3.54
2023-01-18T09:16:47.095Z,4.49
2023-01-18T09:19:14.652Z,4.63
2023-01-18T09:21:44.941Z,3.82
2023-01-18T09:24:13.270Z,3.95
2023-01-18T09:26:41.354Z,3.67
2023-01-18T09:29:09.113Z,4.22
2023-01-18T09:31:36.809Z,3.81
2023-01-18T09:34:18.332Z,3.69
2023-01-18T09:36:47.491Z,3.44
2023-01-18T09:39:15.050Z,3.73
2023-01-18T09:41:45.176Z,3.73
2023-01-18T09:44:28.949Z,3.20
2023-01-18T09:47:10.742Z,4.44
2023-01-18T09:50:11.046Z,3.93
2023-01-18T09:52:52.028Z,3.57
2023-01-18T09:55:39.264Z,3.62
2023-01-18T09:58:19.461Z,3.71
2023-01-18T10:00:48.981Z,3.75
2023-01-18T10:03:55.123Z,3.68
2023-01-18T10:06:44.504Z,4.07
2023-01-18T10:09:20.140Z,4.15
2023-01-18T10:12:29.057Z,3.81
2023-01-18T10:15:20.949Z,3.63
2023-01-18T10:17:53.804Z,4.04
2023-01-18T10:20:28.787Z,4.38
2023-01-18T10:23:00.153Z,4.36
2023-01-18T10:26:08.028Z,4.26
2023-01-18T10:28:56.444Z,4.61
2023-01-18T10:31:33.733Z,4.38
2023-01-18T10:34:05.054Z,4.06
2023-01-18T10:36:38.485Z,4.40
2023-01-18T10:39:25.395Z,4.30
2023-01-18T10:41:53.741Z,4.27
2023-01-18T10:44:21.848Z,4.67
2023-01-18T10:46:49.364Z,4.38
2023-01-18T10:49:34.639Z,4.54
2023-01-18T10:52:27.573Z,4.73
2023-01-18T10:55:07.684Z,4.69
2023-01-18T10:57:36.257Z,4.83
2023-01-18T11:00:12.751Z,5.10
2023-01-18T11:02:42.885Z,4.95
2023-01-18T11:05:23.919Z,4.76
2023-01-18T11:08:33.765Z,4.87
2023-01-18T11:11:46.470Z,6.55
2023-01-18T11:14:30.804Z,5.51
2023-01-18T11:17:03.892Z,5.57
2023-01-18T11:19:31.486Z,4.82
2023-01-18T11:21:58.890Z,4.74
2023-01-18T11:24:31.419Z,5.10
2023-01-18T11:27:14.585Z,5.31
2023-01-18T11:29:44.225Z,5.15
2023-01-18T11:32:24.016Z,5.01
2023-01-18T11:34:55.093Z,5.14
2023-01-18T11:37:35.997Z,5.99
2023-01-18T11:40:28.026Z,6.07
2023-01-18T11:43:03.660Z,5.54
2023-01-18T11:45:37.777Z,5.67
2023-01-18T11:48:15.086Z,5.61
2023-01-18T11:50:52.734Z,6.16
2023-01-18T11:53:44.976Z,6.49
2023-01-18T11:56:41.407Z,6.54
2023-01-18T11:59:14.798Z,6.56
2023-01-18T12:01:47.934Z,5.98
2023-01-18T12:04:57.403Z,5.97
2023-01-18T12:07:27.764Z,6.08
2023-01-18T12:10:01.459Z,6.12
2023-01-18T12:12:53.645Z,6.33
2023-01-18T12:15:27.187Z,5.65
2023-01-18T12:18:16.198Z,5.25
2023-01-18T12:20:52.089Z,5.51
2023-01-18T12:23:45.739Z,5.96
2023-01-18T12:26:33.251Z,6.36
2023-01-18T12:29:28.699Z,6.70
2023-01-18T12:32:25.009Z,6.22
2023-01-18T12:35:24.098Z,6.49
2023-01-18T12:37:58.741Z,6.61
2023-01-18T12:40:32.509Z,6.19
2023-01-18T12:43:27.827Z,6.84
2023-01-18T12:46:09.073Z,6.91
2023-01-18T12:48:40.939Z,6.74
2023-01-18T12:51:17.531Z,6.08
2023-01-18T12:53:47.835Z,5.68
2023-01-18T12:56:30.109Z,5.92
2023-01-18T12:59:00.713Z,6.04
2023-01-18T13:01:32.294Z,5.93
2023-01-18T13:04:05.911Z,6.18
2023-01-18T13:06:36.267Z,6.38
2023-01-18T13:09:10.157Z,6.39
2023-01-18T13:11:41.619Z,6.09
2023-01-18T13:14:18.667Z,6.05
2023-01-18T13:17:17.128Z,6.59
2023-01-18T13:19:54.695Z,7.23
2023-01-18T13:22:37.302Z,7.20
2023-01-18T13:25:26.519Z,6.88
2023-01-18T13:28:06.020Z,7.07
2023-01-18T13:30:46.343Z,6.68
2023-01-18T13:33:14.189Z,6.46
2023-01-18T13:35:50.772Z,6.57
2023-01-18T13:38:27.538Z,6.46
2023-01-18T13:41:03.933Z,7.27
2023-01-18T13:43:37.651Z,7.38
2023-01-18T13:46:08.296Z,7.17
2023-01-18T13:48:56.365Z,7.65
2023-01-18T13:51:39.596Z,7.36
2023-01-18T13:54:15.603Z,7.19
2023-01-18T13:57:06.033Z,6.92
2023-01-18T13:59:49.787Z,6.97
2023-01-18T14:02:22.923Z,7.13
2023-01-18T14:05:05.904Z,7.04
2023-01-18T14:07:43.933Z,7.52
2023-01-18T14:10:37.993Z,7.05
2023-01-18T14:13:11.584Z,6.80
2023-01-18T14:15:42.102Z,6.99
2023-01-18T14:18:23.215Z,6.81
2023-01-18T14:21:32.046Z,6.73
2023-01-18T14:24:28.943Z,6.87
2023-01-18T14:26:57.952Z,7.03
2023-01-18T14:29:36.622Z,7.39
2023-01-18T14:32:07.119Z,7.35
2023-01-18T14:34:41.888Z,7.06
2023-01-18T14:37:26.544Z,7.09
2023-01-18T14:40:03.919Z,6.67
2023-01-18T14:42:35.015Z,7.00
2023-01-18T14:45:03.377Z,6.71
2023-01-18T14:47:32.847Z,6.74
2023-01-18T14:50:04.063Z,7.07
2023-01-18T14:52:32.649Z,7.08
2023-01-18T14:54:59.999Z,7.42
2023-01-18T14:57:27.444Z,7.15
2023-01-18T15:00:02.505Z,7.10
2023-01-18T15:02:38.324Z,7.06
2023-01-18T15:05:17.149Z,6.96
2023-01-18T15:07:53.070Z,7.12
2023-01-18T15:10:21.308Z,7.07
2023-01-18T15:12:51.176Z,7.06
2023-01-18T15:15:27.842Z,7.25
2023-01-18T15:18:10.457Z,7.47
2023-01-18T15:20:48.059Z,7.26
2023-01-18T15:23:15.430Z,6.96
2023-01-18T15:25:43.726Z,6.83
2023-01-18T15:28:22.993Z,7.04
2023-01-18T15:30:55.066Z,7.00
2023-01-18T15:33:24.086Z,6.97
2023-01-18T15:35:55.331Z,7.15
2023-01-18T15:38:22.966Z,7.09
2023-01-18T15:41:00.853Z,7.29
2023-01-18T15:43:37.032Z,7.23
2023-01-18T15:46:08.512Z,7.06
2023-01-18T15:48:46.351Z,7.02
2023-01-18T15:51:13.926Z,7.33
2023-01-18T15:53:52.557Z,7.44
2023-01-18T15:56:26.737Z,7.35
2023-01-18T15:58:56.074Z,7.27
2023-01-18T16:01:31.932Z,7.21
2023-01-18T16:04:05.512Z,7.02
2023-01-18T16:06:37.055Z,7.66
2023-01-18T16:09:16.249Z,7.18
2023-01-18T16:11:56.981Z,7.01
2023-01-18T16:14:34.467Z,6.71
2023-01-18T16:17:07.493Z,6.87
2023-01-18T16:19:37.084Z,6.76
2023-01-18T16:22:07.037Z,6.59
2023-01-18T16:24:34.396Z,6.43
2023-01-18T16:27:10.437Z,6.43
2023-01-18T16:29:59.772Z,6.60
2023-01-18T16:32:30.000Z,6.26
2023-01-18T16:35:01.622Z,6.44
2023-01-18T16:37:30.779Z,6.24
2023-01-18T16:39:58.063Z,6.55
2023-01-18T16:42:36.891Z,6.83
2023-01-18T16:45:12.214Z,7.17
2023-01-18T16:47:39.699Z,6.62
2023-01-18T16:50:18.080Z,6.79
2023-01-18T16:52:45.474Z,6.96
2023-01-18T16:55:17.229Z,6.30
2023-01-18T16:57:45.238Z,6.44
2023-01-18T17:00:21.322Z,6.39
2023-01-18T17:02:49.311Z,6.08
2023-01-18T17:05:17.485Z,6.28
2023-01-18T17:07:45.675Z,6.37
2023-01-18T17:10:26.132Z,5.86
2023-01-18T17:12:55.732Z,5.51
2023-01-18T17:15:23.347Z,6.91
2023-01-18T17:17:51.185Z,7.07
2023-01-18T17:20:22.797Z,8.42
2023-01-18T17:22:50.985Z,9.16
2023-01-18T17:25:18.902Z,9.18
2023-01-18T17:27:46.959Z,9.18
2023-01-18T17:30:16.573Z,8.88
2023-01-18T17:32:45.826Z,9.80
2023-01-18T17:35:15.515Z,10.49
2023-01-18T17:37:43.020Z,9.87
2023-01-18T17:40:17.164Z,8.00
2023-01-18T17:42:47.651Z,6.79
2023-01-18T17:45:15.444Z,6.88
2023-01-18T17:47:43.822Z,6.28
2023-01-18T17:50:14.471Z,6.20
2023-01-18T17:52:42.047Z,6.22
2023-01-18T17:55:15.247Z,6.11
2023-01-18T17:57:43.067Z,6.18
2023-01-18T18:00:14.805Z,6.16
2023-01-18T18:02:46.574Z,5.98
2023-01-18T18:05:14.238Z,5.92
2023-01-18T18:07:42.225Z,6.07
2023-01-18T18:10:11.903Z,5.94
2023-01-18T18:12:39.576Z,6.10
2023-01-18T18:15:07.556Z,6.17
2023-01-18T18:17:35.260Z,6.03
2023-01-18T18:20:03.108Z,5.87
2023-01-18T18:22:31.858Z,5.84
2023-01-18T18:24:59.471Z,5.80
2023-01-18T18:27:37.599Z,5.50
2023-01-18T18:30:13.104Z,5.59
2023-01-18T18:32:42.027Z,5.74
2023-01-18T18:35:23.953Z,5.72
2023-01-18T18:37:53.763Z,5.70
2023-01-18T18:40:22.109Z,6.19
2023-01-18T18:43:01.282Z,5.96
2023-01-18T18:45:31.845Z,6.61
2023-01-18T18:48:00.215Z,6.08
2023-01-18T18:50:27.895Z,5.66
2023-01-18T18:52:55.723Z,5.92
2023-01-18T18:55:23.740Z,6.00
2023-01-18T18:57:51.283Z,5.80
2023-01-18T19:00:19.177Z,5.83
2023-01-18T19:02:46.878Z,5.27
2023-01-18T19:05:18.701Z,5.38
2023-01-18T19:07:47.615Z,5.61
2023-01-18T19:10:15.668Z,5.69
2023-01-18T19:12:43.450Z,5.73
2023-01-18T19:15:11.510Z,5.77
2023-01-18T19:17:39.112Z,5.81
2023-01-18T19:20:10.010Z,5.65
2023-01-18T19:22:38.252Z,6.14
2023-01-18T19:25:06.764Z,6.45
2023-01-18T19:27:34.564Z,5.82
2023-01-18T19:30:02.255Z,5.66
2023-01-18T19:32:29.758Z,5.83
2023-01-18T19:34:57.517Z,5.70
2023-01-18T19:37:24.939Z,5.64
2023-01-18T19:39:52.224Z,5.42
2023-01-18T19:42:19.585Z,5.41
2023-01-18T19:44:47.161Z,5.30
2023-01-18T19:47:14.675Z,5.81
2023-01-18T19:49:43.285Z,5.92
2023-01-18T19:52:10.905Z,5.54
2023-01-18T19:54:38.368Z,5.54
2023-01-18T19:57:07.521Z,5.56
2023-01-18T19:59:35.087Z,5.49
2023-01-18T20:02:02.704Z,5.41
2023-01-18T20:04:30.232Z,5.22
2023-01-18T20:06:58.847Z,5.30
2023-01-18T20:09:35.146Z,5.13
2023-01-18T20:12:10.022Z,5.42
2023-01-18T20:14:41.368Z,5.23
2023-01-18T20:17:12.113Z,5.43
2023-01-18T20:19:39.727Z,5.58
2023-01-18T20:22:07.496Z,5.54
2023-01-18T20:24:35.099Z,5.26
2023-01-18T20:27:15.038Z,5.17
2023-01-18T20:29:43.950Z,5.01
2023-01-18T20:32:18.109Z,5.05
2023-01-18T20:34:47.289Z,5.18
2023-01-18T20:37:15.874Z,4.83
2023-01-18T20:39:43.617Z,4.89
2023-01-18T20:42:11.444Z,4.74
2023-01-18T20:44:39.165Z,4.84
2023-01-18T20:47:07.112Z,4.49
2023-01-18T20:49:38.875Z,4.37
2023-01-18T20:52:07.525Z,3.92
2023-01-18T20:54:36.664Z,4.01
2023-01-18T20:57:05.865Z,4.43
2023-01-18T20:59:33.456Z,4.96
2023-01-18T21:02:02.018Z,4.75
2023-01-18T21:04:29.770Z,5.38
2023-01-18T21:06:59.950Z,5.16
2023-01-18T21:09:28.836Z,4.55
2023-01-18T21:11:56.996Z,4.74
2023-01-18T21:14:24.544Z,4.40
2023-01-18T21:16:52.231Z,4.36
2023-01-18T21:19:20.759Z,4.74
2023-01-18T21:21:48.403Z,4.64
2023-01-18T21:24:17.157Z,4.69
2023-01-18T21:26:44.872Z,4.71
2023-01-18T21:29:27.781Z,4.53
2023-01-18T21:31:56.310Z,4.63
2023-01-18T21:34:23.857Z,4.75
2023-01-18T21:36:51.753Z,4.49
2023-01-18T21:39:24.913Z,4.73
2023-01-18T21:42:11.568Z,4.41
2023-01-18T21:44:58.025Z,4.08
2023-01-18T21:47:25.945Z,3.83
2023-01-18T21:50:17.464Z,3.92
2023-01-18T21:53:04.290Z,3.90
2023-01-18T21:55:31.961Z,3.51
2023-01-18T21:58:18.403Z,3.37
2023-01-18T22:00:46.282Z,3.71
2023-01-18T22:03:18.525Z,3.46
2023-01-18T22:05:47.459Z,3.30
2023-01-18T22:08:15.155Z,3.48
2023-01-18T22:10:46.778Z,3.61
2023-01-18T22:13:14.221Z,3.78
2023-01-18T22:15:41.752Z,3.92
2023-01-18T22:18:09.299Z,4.14
2023-01-18T22:20:38.127Z,3.96
2023-01-18T22:23:05.698Z,4.16
2023-01-18T22:25:33.338Z,4.26
2023-01-18T22:28:03.910Z,4.00
2023-01-18T22:30:31.468Z,4.11
2023-01-18T22:32:58.983Z,4.24
2023-01-18T22:35:26.422Z,4.04
2023-01-18T22:37:53.798Z,3.71
2023-01-18T22:40:21.195Z,3.96
2023-01-18T22:42:48.561Z,3.72
2023-01-18T22:45:16.124Z,4.41
2023-01-18T22:47:43.859Z,5.35
2023-01-18T22:50:11.933Z,6.26
2023-01-18T22:52:39.794Z,4.89
2023-01-18T22:55:07.584Z,4.39
2023-01-18T22:57:35.118Z,4.29
2023-01-18T23:00:04.981Z,3.96
2023-01-18T23:02:34.429Z,3.87
2023-01-18T23:05:05.327Z,3.90
2023-01-18T23:07:32.939Z,3.70
2023-01-18T23:10:00.718Z,3.59
2023-01-18T23:12:28.328Z,3.87
2023-01-18T23:15:14.409Z,3.78
2023-01-18T23:17:43.355Z,3.99
2023-01-18T23:20:13.558Z,3.78
2023-01-18T23:22:41.141Z,3.59
2023-01-18T23:25:09.283Z,3.29
2023-01-18T23:27:36.816Z,3.33
2023-01-18T23:30:04.772Z,3.50
2023-01-18T23:32:32.386Z,3.65
2023-01-18T23:35:00.549Z,3.85
2023-01-18T23:37:28.530Z,3.95
2023-01-18T23:40:15.017Z,3.93
2023-01-18T23:43:01.399Z,3.83
2023-01-18T23:45:47.574Z,4.42
2023-01-18T23:48:36.415Z,4.10
2023-01-18T23:51:23.354Z,4.30
2023-01-18T23:54:09.736Z,4.34
2023-01-18T23:56:37.412Z,4.59
2023-01-18T23:59:05.309Z,4.42
